Relevés horaires Chievres (Belgique)


Relevés horaires à Chievres - Dimanche 01 Mai 2016
Heure UTC1 Température [°C] Vent [km/h] Hum. [%] Pres.4 [hPa] Visi. [Km] Nébu. [octa] Préc.5 [mm] Cond.
2m. Res. Ros. Dir.2 Vit. Moy. Raf.3
23:00 5.5 5.5 1.0 NNO 1.9 0.0 1.9 73 1028.5(-0.1/3h) 20 -- -- --
22:00 6.3 6.3 0.9 NNO 1.9 3.7 3.7 68 1028.7(0.2/3h) 20 -- -- --
21:00 7.1 7.1 1.6 N 3.7 0.0 0.0 68 1028.7(0.6/3h) 20 -- -- --
20:00 8.4 8.4 1.4 NNO 3.7 5.6 5.6 61 1028.7(0.8/3h) 20 -- -- --
19:00 10.1 9.7 1.6 NNO 5.6 5.6 7.4 55 1028.2(0.4/3h) 20 -- -- --
18:00 12.5 12.4 0.9 N 5.6 0.0 0.0 45 1028(0.1/3h) 20 -- 0/0h
--
17:00 13.3 13 -- N 7.4 7.4 11.1 -- 1027.7(0.1/3h) 20 -- -- --
16:00 13.7 13.5 -0.3 N 7.4 9.3 14.8 38 1027.7(0.1/3h) 20 -- -- --
15:00 13.8 13.6 0.4 N 7.4 0.0 0.0 40 1027.5(-0.1/3h) 20 -- -- --
14:00 13.1 12.4 0.9 N 9.3 9.3 16.7 43 1027.5(-0.6/3h) 20 -- -- --
13:00 12.4 11.9 -- N 7.4 11.1 14.8 -- 1027.5(-0.7/3h) 20 -- -- --
12:00 11.7 10.8 2.3 N 9.3 0.0 0.0 52 1027.7(-0.6/3h) 20 -- 0/0h
--
11:00 11.1 9.8 2.3 N 11.1 11.1 14.8 55 1028.2(-0.3/3h) 20 -- -- --
10:00 10.1 8.9 5.2 N 9.3 9.3 14.8 72 1028.4(0.0/3h) 20 -- -- --
09:00 9.1 7.7 2.9 NNE 9.3 0.0 0.0 65 1028.5(0.5/3h) 20 -- -- --
08:00 7.8 5.8 3.1 NNE 11.1 11.1 14.8 72 1028.5(0.9/3h) 19 -- -- --
07:00 6.7 5.3 4.4 N 7.4 7.4 9.3 85 1028.4(1.3/3h) 19 -- -- --
06:00 4.3 4.3 3.4 N 3.7 0.0 0.0 94 1028.2(1.3/3h) 7 -- 0/0h
--
05:00 2.2 2.2 1.7 NNO 3.7 3.7 5.6 96 1027.9(1.4/3h) 5 -- -- --
04:00 2.0 2.0 1.2 N 3.7 3.7 5.6 94 1027.2(1.0/3h) 7 -- -- --
03:00 2.2 2.2 1.6 NNO 3.7 0.0 0.0 96 1026.9(0.5/3h) 7 -- -- --
02:00 3.0 3.0 2.0 NNO 3.7 5.6 7.4 93 1026.4(0.5/3h) 11 -- -- --
01:00 3.5 2.1 2.3 NNO 5.6 5.6 7.4 92 1026(0.3/3h) 14 -- -- --
00:00 3.7 2.4 2.2 N 5.6 0.0 0.0 90 1026.2(1.1/3h) 16 -- 0/0h
--

1 Coordinated Universal Time. Actuellement il est 15:00 locale et 13:00 UTC.

2 Le vent souffle depuis la direction indiquée vers la direction oposée.

3 Les rafales max. sont disponible 40 min après l'heure du relevé.

4 Pour les stations d'altitude (plus de 600m) le géopotentiel du niveau le plus proche de la pression obligatoire est indiqué.

5 Les stations disposant d'un diffuseur peuvent indiquer "trace". Cela signifie que des précipitations ont touchés le sol mais que la quantité est inférieure à 0.1 mm.

Récapitulatif de la journée
Température [°C] Vent [km/h] Ensoleillement4 [h] Precipitations totale5 [mm] Pression [Hpa]
Min1 Max.2 Moy.3 Max. Min Max.
1.4 14.1 4.6 16.7 0 h 0 min 0 1026.0 1028.7

1 Température minimale relevée entre 18:00 UTC la veille et 18:00 UTC le jour donné.

2 Température maximale relevée entre 06:00 UTC le jour donné et 06:00 UTC le lendemain.

3 Vent moyen de la journée basé sur les relevés horaires.

4 Ensoleillement en heures relevé entre 06:00 UTC la veille et 06:00 UTC le jour donné.

5 Précipitations totales tombées entre 06:00 UTC la jour donné et 06:00 UTC le lendemain.

Graphiques horaires